createdAt,value
2022-10-09T00:01:19.130Z,1.80
2022-10-09T00:03:48.386Z,2.10
2022-10-09T00:06:19.645Z,1.80
2022-10-09T00:08:47.727Z,2.08
2022-10-09T00:11:19.160Z,1.70
2022-10-09T00:13:47.352Z,1.83
2022-10-09T00:16:16.541Z,1.90
2022-10-09T00:18:45.357Z,1.90
2022-10-09T00:21:24.444Z,2.47
2022-10-09T00:23:54.302Z,1.70
2022-10-09T00:26:22.697Z,1.60
2022-10-09T00:28:50.923Z,1.88
2022-10-09T00:31:19.134Z,2.00
2022-10-09T00:33:46.929Z,2.00
2022-10-09T00:36:22.966Z,1.88
2022-10-09T00:38:50.726Z,2.20
2022-10-09T00:41:22.627Z,1.83
2022-10-09T00:43:56.983Z,2.20
2022-10-09T00:46:42.697Z,1.77
2022-10-09T00:49:29.320Z,1.70
2022-10-09T00:52:02.171Z,1.65
2022-10-09T00:54:37.328Z,2.05
2022-10-09T00:57:04.939Z,2.05
2022-10-09T00:59:32.901Z,1.92
2022-10-09T01:02:00.353Z,1.67
2022-10-09T01:04:27.984Z,1.60
2022-10-09T01:07:09.697Z,1.60
2022-10-09T01:09:45.521Z,1.83
2022-10-09T01:12:34.164Z,1.23
2022-10-09T01:15:22.497Z,1.15
2022-10-09T01:18:09.384Z,2.47
2022-10-09T01:20:50.139Z,1.70
2022-10-09T01:23:37.424Z,1.58
2022-10-09T01:26:16.914Z,1.45
2022-10-09T01:28:48.335Z,1.73
2022-10-09T01:31:18.402Z,0.98
2022-10-09T01:33:46.685Z,1.58
2022-10-09T01:36:16.578Z,2.13
2022-10-09T01:38:45.320Z,1.80
2022-10-09T01:41:12.940Z,1.42
2022-10-09T01:43:41.493Z,1.65
2022-10-09T01:46:22.310Z,1.45
2022-10-09T01:49:08.661Z,2.17
2022-10-09T01:51:59.156Z,1.30
2022-10-09T01:55:08.839Z,1.92
2022-10-09T01:57:45.516Z,1.42
2022-10-09T02:00:14.714Z,1.40
2022-10-09T02:02:43.931Z,1.75
2022-10-09T02:05:15.624Z,1.65
2022-10-09T02:07:43.763Z,1.90
2022-10-09T02:10:11.982Z,1.50
2022-10-09T02:12:45.907Z,1.80
2022-10-09T02:15:14.116Z,1.60
2022-10-09T02:17:46.912Z,1.60
2022-10-09T02:20:17.455Z,1.65
2022-10-09T02:22:46.634Z,1.73
2022-10-09T02:25:14.996Z,1.55
2022-10-09T02:27:42.589Z,1.65
2022-10-09T02:30:11.445Z,1.60
2022-10-09T02:32:39.083Z,1.60
2022-10-09T02:35:08.437Z,2.25
2022-10-09T02:37:36.030Z,1.80
2022-10-09T02:40:08.245Z,1.73
2022-10-09T02:42:38.042Z,2.00
2022-10-09T02:45:06.066Z,1.50
2022-10-09T02:47:33.600Z,1.80
2022-10-09T02:50:00.928Z,1.50
2022-10-09T02:52:28.459Z,1.60
2022-10-09T02:54:56.135Z,1.83
2022-10-09T02:57:23.611Z,1.55
2022-10-09T02:59:51.124Z,1.65
2022-10-09T03:02:18.715Z,1.45
2022-10-09T03:04:46.476Z,1.73
2022-10-09T03:07:13.948Z,1.50
2022-10-09T03:09:41.265Z,1.77
2022-10-09T03:12:08.695Z,1.80
2022-10-09T03:14:36.031Z,1.60
2022-10-09T03:17:03.376Z,1.80
2022-10-09T03:19:30.846Z,1.40
2022-10-09T03:21:58.308Z,1.40
2022-10-09T03:24:25.920Z,1.75
2022-10-09T03:26:53.332Z,1.48
2022-10-09T03:29:20.911Z,1.45
2022-10-09T03:31:53.170Z,1.45
2022-10-09T03:34:21.165Z,1.60
2022-10-09T03:36:48.487Z,1.10
2022-10-09T03:39:15.833Z,1.42
2022-10-09T03:41:43.513Z,1.35
2022-10-09T03:44:10.912Z,1.40
2022-10-09T03:46:38.703Z,1.40
2022-10-09T03:49:06.459Z,1.55
2022-10-09T03:51:34.054Z,1.60
2022-10-09T03:54:01.527Z,1.48
2022-10-09T03:56:29.022Z,1.40
2022-10-09T03:58:56.452Z,1.48
2022-10-09T04:01:23.947Z,1.55
2022-10-09T04:03:51.317Z,1.40
2022-10-09T04:06:18.784Z,1.60
2022-10-09T04:08:46.133Z,2.00
2022-10-09T04:11:13.500Z,1.52
2022-10-09T04:13:41.002Z,1.33
2022-10-09T04:16:12.865Z,1.33
2022-10-09T04:18:42.063Z,1.60
2022-10-09T04:21:10.649Z,1.45
2022-10-09T04:23:37.981Z,1.80
2022-10-09T04:26:06.218Z,1.50
2022-10-09T04:28:33.872Z,1.55
2022-10-09T04:31:01.907Z,1.60
2022-10-09T04:33:29.889Z,1.60
2022-10-09T04:35:58.081Z,1.63
2022-10-09T04:38:25.922Z,1.40
2022-10-09T04:41:01.378Z,1.20
2022-10-09T04:43:29.730Z,1.42
2022-10-09T04:45:57.261Z,1.33
2022-10-09T04:48:27.825Z,1.23
2022-10-09T04:50:55.357Z,1.10
2022-10-09T04:53:22.880Z,1.30
2022-10-09T04:55:50.252Z,1.33
2022-10-09T04:58:17.714Z,1.40
2022-10-09T05:00:46.664Z,1.20
2022-10-09T05:03:14.123Z,1.30
2022-10-09T05:05:41.705Z,1.42
2022-10-09T05:08:09.226Z,1.10
2022-10-09T05:10:36.694Z,1.40
2022-10-09T05:13:04.311Z,1.33
2022-10-09T05:15:32.239Z,1.52
2022-10-09T05:17:59.721Z,1.45
2022-10-09T05:20:27.189Z,1.23
2022-10-09T05:22:54.606Z,1.23
2022-10-09T05:25:22.388Z,1.10
2022-10-09T05:27:49.892Z,1.08
2022-10-09T05:30:18.780Z,1.27
2022-10-09T05:32:46.336Z,0.90
2022-10-09T05:35:13.998Z,1.48
2022-10-09T05:37:44.877Z,0.93
2022-10-09T05:40:12.799Z,1.17
2022-10-09T05:42:40.547Z,1.00
2022-10-09T05:45:08.634Z,1.30
2022-10-09T05:47:36.218Z,1.10
2022-10-09T05:50:04.205Z,1.30
2022-10-09T05:52:31.602Z,1.30
2022-10-09T05:54:59.096Z,1.10
2022-10-09T05:57:26.837Z,1.10
2022-10-09T05:59:54.259Z,1.40
2022-10-09T06:02:21.768Z,1.30
2022-10-09T06:04:49.173Z,1.30
2022-10-09T06:07:16.517Z,1.27
2022-10-09T06:09:44.090Z,1.02
2022-10-09T06:12:11.618Z,1.20
2022-10-09T06:14:38.958Z,1.10
2022-10-09T06:17:06.545Z,1.20
2022-10-09T06:19:34.063Z,0.82
2022-10-09T06:22:01.572Z,1.20
2022-10-09T06:24:29.703Z,1.00
2022-10-09T06:26:58.466Z,0.43
2022-10-09T06:29:26.487Z,1.02
2022-10-09T06:31:54.887Z,0.65
2022-10-09T06:34:22.411Z,1.20
2022-10-09T06:36:49.924Z,0.70
2022-10-09T06:39:17.507Z,0.70
2022-10-09T06:41:45.080Z,0.70
2022-10-09T06:44:16.572Z,0.80
2022-10-09T06:46:45.278Z,0.80
2022-10-09T06:49:13.013Z,1.00
2022-10-09T06:51:40.618Z,0.50
2022-10-09T06:54:13.399Z,1.08
2022-10-09T06:56:41.309Z,0.82
2022-10-09T06:59:10.165Z,0.77
2022-10-09T07:01:37.746Z,0.90
2022-10-09T07:04:09.567Z,0.75
2022-10-09T07:06:43.117Z,1.27
2022-10-09T07:09:13.373Z,0.70
2022-10-09T07:11:43.743Z,0.50
2022-10-09T07:14:12.762Z,0.50
2022-10-09T07:16:45.332Z,0.80
2022-10-09T07:19:14.253Z,0.70
2022-10-09T07:21:44.369Z,0.70
2022-10-09T07:24:13.001Z,0.80
2022-10-09T07:26:43.786Z,0.57
2022-10-09T07:29:13.996Z,0.70
2022-10-09T07:31:41.528Z,0.32
2022-10-09T07:34:09.087Z,0.70
2022-10-09T07:36:36.705Z,0.60
2022-10-09T07:39:04.754Z,0.80
2022-10-09T07:41:34.493Z,0.50
2022-10-09T07:44:02.530Z,0.80
2022-10-09T07:46:33.657Z,0.60
2022-10-09T07:49:03.313Z,0.50
2022-10-09T07:51:31.437Z,0.60
2022-10-09T07:54:00.430Z,0.60
2022-10-09T07:56:31.325Z,0.80
2022-10-09T07:59:01.353Z,0.68
2022-10-09T08:01:29.960Z,0.28
2022-10-09T08:03:58.239Z,0.65
2022-10-09T08:06:26.006Z,0.70
2022-10-09T08:08:55.622Z,0.60
2022-10-09T08:11:25.337Z,0.40
2022-10-09T08:13:53.263Z,0.40
2022-10-09T08:16:28.530Z,0.40
2022-10-09T08:18:57.885Z,0.52
2022-10-09T08:21:26.205Z,0.60
2022-10-09T08:23:55.185Z,0.40
2022-10-09T08:26:23.487Z,0.70
2022-10-09T08:29:14.032Z,0.43
2022-10-09T08:31:41.695Z,0.57
2022-10-09T08:34:09.516Z,0.40
2022-10-09T08:36:36.982Z,0.50
2022-10-09T08:39:04.411Z,1.00
2022-10-09T08:41:53.226Z,0.65
2022-10-09T08:44:22.068Z,0.50
2022-10-09T08:47:12.114Z,0.50
2022-10-09T08:49:54.944Z,0.30
2022-10-09T08:52:37.824Z,0.40
2022-10-09T08:55:25.932Z,0.47
2022-10-09T08:58:01.228Z,0.30
2022-10-09T09:00:38.686Z,0.40
2022-10-09T09:03:18.005Z,0.40
2022-10-09T09:06:14.928Z,0.40
2022-10-09T09:09:01.562Z,0.40
2022-10-09T09:11:47.117Z,0.45
2022-10-09T09:14:39.564Z,0.20
2022-10-09T09:17:30.926Z,0.50
2022-10-09T09:20:17.028Z,0.35
2022-10-09T09:22:49.042Z,0.63
2022-10-09T09:25:21.453Z,0.30
2022-10-09T09:27:49.519Z,0.30
2022-10-09T09:30:31.266Z,0.28
2022-10-09T09:33:12.124Z,0.20
2022-10-09T09:36:04.464Z,0.45
2022-10-09T09:38:43.943Z,0.50
2022-10-09T09:41:25.233Z,0.55
2022-10-09T09:43:52.592Z,0.22
2022-10-09T09:46:27.445Z,0.35
2022-10-09T09:48:55.697Z,0.28
2022-10-09T09:51:29.209Z,0.40
2022-10-09T09:54:15.373Z,0.30
2022-10-09T09:59:40.507Z,0.20
2022-10-09T10:02:14.503Z,0.40
2022-10-09T10:05:06.700Z,0.25
2022-10-09T10:07:38.464Z,0.25
2022-10-09T10:10:10.188Z,0.25
2022-10-09T10:12:42.843Z,0.70
2022-10-09T10:15:31.869Z,0.30
2022-10-09T10:18:17.767Z,0.30
2022-10-09T10:20:57.133Z,0.50
2022-10-09T10:23:24.816Z,0.40
2022-10-09T10:25:58.413Z,0.38
2022-10-09T10:28:33.740Z,0.50
2022-10-09T10:31:03.487Z,0.30
2022-10-09T10:33:33.756Z,0.57
2022-10-09T10:36:01.762Z,0.50
2022-10-09T10:38:59.713Z,0.30
2022-10-09T10:41:32.842Z,0.47
2022-10-09T10:44:22.033Z,0.77
2022-10-09T10:46:53.504Z,0.20
2022-10-09T10:49:23.316Z,0.45
2022-10-09T10:52:21.253Z,0.30
2022-10-09T10:55:10.979Z,0.38
2022-10-09T10:57:59.314Z,0.20
2022-10-09T11:00:28.517Z,0.40
2022-10-09T11:03:24.613Z,0.30
2022-10-09T11:05:53.089Z,0.30
2022-10-09T11:08:39.139Z,0.30
2022-10-09T11:11:28.681Z,0.35
2022-10-09T11:14:24.289Z,0.40
2022-10-09T11:17:03.988Z,0.30
2022-10-09T11:19:53.255Z,0.40
2022-10-09T11:22:51.907Z,0.30
2022-10-09T11:25:23.250Z,0.43
2022-10-09T11:27:57.023Z,0.30
2022-10-09T11:30:26.865Z,0.30
2022-10-09T11:33:21.251Z,0.30
2022-10-09T11:36:01.228Z,0.20
2022-10-09T11:38:31.517Z,0.40
2022-10-09T11:41:02.657Z,0.30
2022-10-09T11:43:50.888Z,0.32
2022-10-09T11:46:41.712Z,0.40
2022-10-09T11:49:21.162Z,0.30
2022-10-09T11:52:01.248Z,0.30
2022-10-09T11:54:29.383Z,0.30
2022-10-09T11:57:06.310Z,0.20
2022-10-09T11:59:37.414Z,0.40
2022-10-09T12:02:35.050Z,0.40
2022-10-09T12:05:02.930Z,0.30
2022-10-09T12:07:36.483Z,0.30
2022-10-09T12:10:29.199Z,0.30
2022-10-09T12:13:04.279Z,0.40
2022-10-09T12:15:49.437Z,0.30
2022-10-09T12:18:32.364Z,0.40
2022-10-09T12:21:03.155Z,0.40
2022-10-09T12:23:35.370Z,0.40
2022-10-09T12:26:04.244Z,0.50
2022-10-09T12:28:39.484Z,0.50
2022-10-09T12:31:25.080Z,0.40
2022-10-09T12:33:59.181Z,0.40
2022-10-09T12:36:29.313Z,0.32
2022-10-09T12:38:56.935Z,0.32
2022-10-09T12:41:31.813Z,0.30
2022-10-09T12:43:59.770Z,0.40
2022-10-09T12:46:53.445Z,0.57
2022-10-09T12:49:24.411Z,0.40
2022-10-09T12:51:57.138Z,0.40
2022-10-09T12:54:26.245Z,0.40
2022-10-09T12:56:56.572Z,0.30
2022-10-09T12:59:26.216Z,0.40
2022-10-09T13:01:58.539Z,0.30
2022-10-09T13:04:27.747Z,0.40
2022-10-09T13:06:56.855Z,0.50
2022-10-09T13:09:32.989Z,0.40
2022-10-09T13:12:25.143Z,0.50
2022-10-09T13:14:57.164Z,0.30
2022-10-09T13:17:37.957Z,0.45
2022-10-09T13:20:30.449Z,0.90
2022-10-09T13:37:43.256Z,0.30
2022-10-09T13:41:24.462Z,0.70
2022-10-09T13:44:07.017Z,0.50
2022-10-09T14:08:43.227Z,0.30
2022-10-09T14:11:11.061Z,0.30
2022-10-09T14:13:38.611Z,0.40
2022-10-09T14:16:07.393Z,0.35
2022-10-09T14:18:35.443Z,0.20
2022-10-09T14:21:15.725Z,0.40
2022-10-09T14:23:43.865Z,0.30
2022-10-09T14:26:12.142Z,0.47
2022-10-09T14:28:39.887Z,0.40
2022-10-09T14:31:08.655Z,0.60
2022-10-09T14:33:36.373Z,0.30
2022-10-09T14:36:08.803Z,0.40
2022-10-09T14:38:38.484Z,0.32
2022-10-09T14:41:09.656Z,0.57
2022-10-09T14:43:45.907Z,0.45
2022-10-09T14:49:09.100Z,0.30
2022-10-09T15:01:45.948Z,0.40
2022-10-09T15:07:34.105Z,0.40
2022-10-09T15:10:52.664Z,0.40
2022-10-09T15:13:25.818Z,0.40
2022-10-09T15:19:26.305Z,0.32
2022-10-09T15:22:33.297Z,0.50
2022-10-09T15:25:11.549Z,0.40
2022-10-09T15:27:41.069Z,0.43
2022-10-09T15:30:09.346Z,0.40
2022-10-09T15:32:37.133Z,0.40
2022-10-09T15:35:04.965Z,0.40
2022-10-09T15:37:32.622Z,0.52
2022-10-09T15:40:00.178Z,0.52
2022-10-09T15:42:27.646Z,0.50
2022-10-09T15:44:55.029Z,0.50
2022-10-09T15:47:39.164Z,0.50
2022-10-09T15:50:10.470Z,0.50
2022-10-09T15:52:37.915Z,0.60
2022-10-09T15:55:06.130Z,0.50
2022-10-09T15:57:34.258Z,0.60
2022-10-09T16:00:01.705Z,0.52
2022-10-09T16:02:29.229Z,0.47
2022-10-09T16:04:57.008Z,0.40
2022-10-09T16:07:24.447Z,0.50
2022-10-09T16:09:51.911Z,0.40
2022-10-09T16:12:19.544Z,0.40
2022-10-09T16:14:47.117Z,0.50
2022-10-09T16:17:14.971Z,0.52
2022-10-09T16:19:42.392Z,0.40
2022-10-09T16:22:09.840Z,0.50
2022-10-09T16:24:37.346Z,0.50
2022-10-09T16:27:04.853Z,0.50
2022-10-09T16:29:32.733Z,0.50
2022-10-09T16:32:00.278Z,0.52
2022-10-09T16:34:27.855Z,0.80
2022-10-09T16:36:57.061Z,0.90
2022-10-09T16:39:24.673Z,0.80
2022-10-09T16:41:52.127Z,0.70
2022-10-09T16:44:19.535Z,0.63
2022-10-09T16:46:47.128Z,0.70
2022-10-09T16:49:21.354Z,0.75
2022-10-09T16:51:51.633Z,0.70
2022-10-09T16:54:19.443Z,0.68
2022-10-09T16:56:46.931Z,0.70
2022-10-09T16:59:14.401Z,0.60
2022-10-09T17:01:45.850Z,0.70
2022-10-09T17:04:14.779Z,0.68
2022-10-09T17:06:44.609Z,0.60
2022-10-09T17:09:14.144Z,0.60
2022-10-09T17:11:42.098Z,0.68
2022-10-09T17:14:09.604Z,0.90
2022-10-09T17:16:39.305Z,0.70
2022-10-09T17:19:07.020Z,0.80
2022-10-09T17:21:35.505Z,0.88
2022-10-09T17:24:04.740Z,0.63
2022-10-09T17:26:32.867Z,0.73
2022-10-09T17:29:02.473Z,0.50
2022-10-09T17:31:31.534Z,0.80
2022-10-09T17:34:01.813Z,0.90
2022-10-09T17:36:32.310Z,1.25
2022-10-09T17:39:00.504Z,1.00
2022-10-09T17:41:29.893Z,0.98
2022-10-09T17:43:58.182Z,1.20
2022-10-09T17:46:27.590Z,1.40
2022-10-09T17:48:57.267Z,1.30
2022-10-09T17:51:31.673Z,1.20
2022-10-09T17:54:02.225Z,1.30
2022-10-09T17:56:31.728Z,1.33
2022-10-09T17:59:00.413Z,1.20
2022-10-09T18:01:28.487Z,1.35
2022-10-09T18:03:57.333Z,1.60
2022-10-09T18:06:26.115Z,1.30
2022-10-09T18:08:55.868Z,1.13
2022-10-09T18:11:25.550Z,1.05
2022-10-09T18:13:53.790Z,1.10
2022-10-09T18:16:31.417Z,1.27
2022-10-09T18:19:12.627Z,1.30
2022-10-09T18:21:44.673Z,1.20
2022-10-09T18:24:13.076Z,1.30
2022-10-09T18:26:40.928Z,1.20
2022-10-09T18:29:08.994Z,1.20
2022-10-09T18:31:38.011Z,1.10
2022-10-09T18:34:05.644Z,1.13
2022-10-09T18:36:35.244Z,1.17
2022-10-09T18:39:07.084Z,1.20
2022-10-09T18:41:35.660Z,1.30
2022-10-09T18:44:04.054Z,1.77
2022-10-09T18:46:38.913Z,1.92
2022-10-09T18:49:12.138Z,2.38
2022-10-09T18:51:42.367Z,2.13
2022-10-09T18:54:15.762Z,1.60
2022-10-09T18:56:46.871Z,1.17
2022-10-09T18:59:17.003Z,1.02
2022-10-09T19:01:44.638Z,0.90
2022-10-09T19:04:12.212Z,0.70
2022-10-09T19:06:39.892Z,0.70
2022-10-09T19:09:07.408Z,0.80
2022-10-09T19:11:35.248Z,0.90
2022-10-09T19:14:03.263Z,0.90
2022-10-09T19:16:32.976Z,0.80
2022-10-09T19:19:00.765Z,0.80
2022-10-09T19:21:28.224Z,0.60
2022-10-09T19:23:55.697Z,0.80
2022-10-09T19:26:27.313Z,0.77
2022-10-09T19:28:54.619Z,0.60
2022-10-09T19:31:22.429Z,0.85
2022-10-09T19:33:49.972Z,0.73
2022-10-09T19:36:17.980Z,0.70
2022-10-09T19:38:46.036Z,0.80
2022-10-09T19:41:16.125Z,1.00
2022-10-09T19:43:43.675Z,0.80
2022-10-09T19:46:14.508Z,0.80
2022-10-09T19:48:42.189Z,0.80
2022-10-09T19:51:14.747Z,0.80
2022-10-09T19:53:45.565Z,0.93
2022-10-09T19:56:16.229Z,0.70
2022-10-09T19:58:45.849Z,0.80
2022-10-09T20:01:15.597Z,0.77
2022-10-09T20:03:43.474Z,0.85
2022-10-09T20:06:11.768Z,0.60
2022-10-09T20:08:41.025Z,0.93
2022-10-09T20:11:11.832Z,0.77
2022-10-09T20:13:40.629Z,0.80
2022-10-09T20:16:11.649Z,1.00
2022-10-09T20:18:42.518Z,0.80
2022-10-09T20:21:15.223Z,0.80
2022-10-09T20:23:44.390Z,0.98
2022-10-09T20:26:15.284Z,0.88
2022-10-09T20:28:43.897Z,0.63
2022-10-09T20:31:14.974Z,0.80
2022-10-09T20:33:43.355Z,0.57
2022-10-09T20:36:39.537Z,0.63
2022-10-09T20:39:11.295Z,0.77
2022-10-09T20:41:40.053Z,0.60
2022-10-09T20:44:08.003Z,0.60
2022-10-09T20:46:37.547Z,0.60
2022-10-09T20:49:07.413Z,0.70
2022-10-09T20:51:36.224Z,0.82
2022-10-09T20:54:05.204Z,0.65
2022-10-09T20:56:34.548Z,0.70
2022-10-09T20:59:03.090Z,0.68
2022-10-09T21:01:30.764Z,0.65
2022-10-09T21:03:59.464Z,0.70
2022-10-09T21:06:27.998Z,0.68
2022-10-09T21:08:56.706Z,0.55
2022-10-09T21:11:24.676Z,0.60
2022-10-09T21:13:52.395Z,0.60
2022-10-09T21:16:25.017Z,0.70
2022-10-09T21:18:58.444Z,0.70
2022-10-09T21:21:26.767Z,0.70
2022-10-09T21:23:55.605Z,0.63
2022-10-09T21:26:24.989Z,0.80
2022-10-09T21:28:58.288Z,0.60
2022-10-09T21:31:29.104Z,0.70
2022-10-09T21:33:58.620Z,0.60
2022-10-09T21:37:08.450Z,0.60
2022-10-09T21:39:32.641Z,0.65
2022-10-09T21:42:00.222Z,0.52
2022-10-09T21:44:28.173Z,0.80
2022-10-09T21:46:55.625Z,0.60
2022-10-09T21:49:25.916Z,0.50
2022-10-09T21:51:54.215Z,0.70
2022-10-09T21:54:22.224Z,0.70
2022-10-09T21:56:49.916Z,0.70
2022-10-09T21:59:17.820Z,0.70
2022-10-09T22:01:45.505Z,0.60
2022-10-09T22:04:13.117Z,0.70
2022-10-09T22:06:41.639Z,0.50
2022-10-09T22:09:10.256Z,0.60
2022-10-09T22:11:37.823Z,0.60
2022-10-09T22:14:05.839Z,0.85
2022-10-09T22:16:33.716Z,0.77
2022-10-09T22:19:01.494Z,0.70
2022-10-09T22:21:29.195Z,0.60
2022-10-09T22:23:57.039Z,0.60
2022-10-09T22:26:24.770Z,0.68
2022-10-09T22:28:52.795Z,0.80
2022-10-09T22:31:23.606Z,0.60
2022-10-09T22:33:56.893Z,0.70
2022-10-09T22:36:28.452Z,0.60
2022-10-09T22:38:58.407Z,0.57
2022-10-09T22:41:27.547Z,0.70
2022-10-09T22:43:57.643Z,0.60
2022-10-09T22:46:27.699Z,0.60
2022-10-09T22:48:55.713Z,0.73
2022-10-09T22:51:25.227Z,0.70
2022-10-09T22:53:52.819Z,0.60
2022-10-09T22:56:27.233Z,0.60
2022-10-09T22:58:55.126Z,0.60
2022-10-09T23:01:35.900Z,0.70
2022-10-09T23:04:05.913Z,0.70
2022-10-09T23:06:34.197Z,0.57
2022-10-09T23:09:04.018Z,0.60
2022-10-09T23:11:31.484Z,0.60
2022-10-09T23:14:00.210Z,0.90
2022-10-09T23:16:30.002Z,0.80
2022-10-09T23:19:02.940Z,0.82
2022-10-09T23:21:33.163Z,0.60
2022-10-09T23:24:00.793Z,0.70
2022-10-09T23:26:30.703Z,0.90
2022-10-09T23:29:09.839Z,0.70
2022-10-09T23:31:37.257Z,0.70
2022-10-09T23:34:06.304Z,0.65
2022-10-09T23:36:34.218Z,0.75
2022-10-09T23:39:02.534Z,0.60
2022-10-09T23:41:30.725Z,0.80
2022-10-09T23:43:58.486Z,0.70
2022-10-09T23:46:29.461Z,0.70
2022-10-09T23:48:57.461Z,0.70
2022-10-09T23:51:26.263Z,0.80
2022-10-09T23:53:54.541Z,0.75
2022-10-09T23:56:26.784Z,0.95
2022-10-09T23:58:55.291Z,0.90
